Latest Coastal Weather Observations for South Johnstone

IDQ60701

Issued at 5:02 am EST Wednesday 17 January 2018 (issued every 10 minutes, with the page automatically refreshed every 10 minutes)

About coastal observations | Map of coastal stations | Coastal observations for QLD | Marine services | Other Formats
Station Details ID: 032037 Name: SOUTH JOHNSTONE EXP STN Lat: -17.61 Lon: 146.00 Height: 18.3 m
Data from the previous 72 hours. | See also: Recent months at South Johnstone
Date/Time
EST
Temp
°C
Wind Pressure Rain since
9am
mm
Weather Cloud Vis
km
Sea
Height
m
Swell
Dir  Spd
kts
Gust
kts
hPa Trend Height
m
Period
s
Dir
17/05:00am 23.3 S 8 13 1009.3 - 151.4 - - - - - - -
17/04:30am 23.3 S 9 17 1008.9 - 147.8 - - - - - - -
17/04:00am 23.3 S 10 15 1009.0 - 141.8 - - - - - - -
17/03:30am 23.3 S 13 22 1008.7 - 139.4 - - - - - - -
17/03:00am 23.2 WSW 7 17 1008.4 - 105.6 - - - - - - -
17/02:30am 23.4 SSW 10 16 1008.6 - 80.2 - - - - - - -
17/02:00am 23.2 SSW 12 19 1008.8 - 67.4 - - - - - - -
17/01:30am 23.6 S 9 14 1009.2 - 48.4 - - - - - - -
17/01:00am 23.3 S 10 19 1009.6 - 41.4 - - - - - - -
17/12:30am 24.7 SSE 7 13 1009.9 - 14.6 - - - - - - -
17/12:00am 25.2 SSE 7 10 1009.9 - 9.6 - - - - - - -
 
Date/Time
EST
Temp
°C
Wind Pressure Rain since
9am
mm
Weather Cloud Vis
km
Sea
Height
m
Swell
Dir  Spd
kts
Gust
kts
hPa Trend Height
m
Period
s
Dir
16/11:30pm 25.7 SSE 2 4 1010.3 - 9.6 - - - - - - -
16/11:00pm 25.2 ESE 1 4 1010.4 - 9.6 - - - - - - -
16/10:30pm 24.7 CALM 0 0 1010.4 - 9.6 - - - - - - -
16/10:00pm 24.6 CALM 0 0 1010.0 - 9.6 - - - - - - -
16/09:30pm 24.6 CALM 0 0 1009.9 - 9.4 - - - - - - -
16/09:00pm 24.5 CALM 0 3 1010.0 - 9.2 - - - - - - -
16/08:30pm 24.6 SW 4 7 1009.9 - 9.2 - - - - - - -
16/08:00pm 24.8 E 1 5 1009.6 - 9.2 - - - - - - -
16/07:30pm 25.9 SSW 2 7 1009.4 - 0.2 - - - - - - -
16/07:00pm 25.9 SSW 5 10 1009.1 - 0.0 - - - - - - -
16/06:30pm 26.2 S 5 9 1008.8 - 0.0 - - - - - - -
16/06:00pm 26.2 S 6 10 1008.3 - 0.0 - - - - - - -
16/05:30pm 26.2 S 8 13 1008.2 - 0.0 - - - - - - -
16/05:00pm 26.5 S 6 10 1008.0 - 0.0 - - - - - - -
16/04:30pm 26.7 S 5 9 1007.7 - 0.0 - - - - - - -
16/04:00pm 26.9 S 8 13 1007.7 - 0.0 - - - - - - -
16/03:30pm 28.2 SE 10 17 1007.6 - 0.0 - - - - - - -
16/03:00pm 29.0 ESE 9 13 1007.7 - 0.0 - - - - - - -
16/02:30pm 29.8 SE 8 12 1008.1 - 0.0 - - - - - - -
16/02:00pm 28.6 SE 9 15 1008.6 - 0.0 - - - - - - -
16/01:30pm 29.6 SSE 9 13 1008.9 - 0.0 - - - - - - -
16/01:00pm 29.3 SSE 9 13 1009.2 - 0.0 - - - - - - -
16/12:30pm 29.3 SE 8 11 1009.6 - 0.0 - - - - - - -
16/12:00pm 29.4 SSE 7 11 1009.6 - 0.0 - - - - - - -
16/11:30am 29.1 S 5 8 1009.8 - 0.0 - - - - - - -
16/11:00am 28.4 S 6 9 1009.8 - 0.0 - - - - - - -
16/10:30am 27.9 SSE 6 8 1009.7 - 0.0 - - - - - - -
16/10:00am 27.2 SSE 5 7 1009.4 - 0.0 - - - - - - -
16/09:30am 27.2 SSE 4 7 1009.3 - 0.0 - - - - - - -
16/09:00am 26.5 SW 4 6 1009.3 - 23.0 - - - - - - -
16/08:30am 25.6 WSW 5 8 1009.2 - 23.0 - - - - - - -
16/08:00am 25.0 SSW 5 8 1009.3 - 23.0 - - - - - - -
16/07:30am 24.5 SW 6 8 1009.1 - 23.0 - - - - - - -
16/07:00am 23.8 S 4 9 1008.8 - 23.0 - - - - - - -
16/06:30am 22.6 SSE 5 7 1008.5 - 23.0 - - - - - - -
16/06:00am 22.6 CALM 0 3 1007.7 - 23.0 - - - - - - -
16/05:30am 22.6 WSW 2 4 1007.7 - 23.0 - - - - - - -
16/05:00am 22.7 NNW 1 3 1007.6 - 23.0 - - - - - - -
16/04:30am 22.7 WSW 3 5 1006.9 - 23.0 - - - - - - -
16/04:00am 22.7 W 4 6 1007.0 - 23.0 - - - - - - -
16/03:30am 22.8 SW 5 9 1007.0 - 22.6 - - - - - - -
16/03:00am 22.7 SW 9 12 1007.4 - 20.8 - - - - - - -
16/02:30am 22.5 WSW 5 8 1007.4 - 20.0 - - - - - - -
16/02:00am 22.5 W 4 7 1007.5 - 18.0 - - - - - - -
16/01:30am 23.0 SSW 9 16 1008.2 - 6.4 - - - - - - -
16/01:00am 24.0 S 14 25 1007.8 - 1.4 - - - - - - -
16/12:30am 26.8 S 7 11 1007.1 - 0.0 - - - - - - -
16/12:00am 26.9 CALM 0 3 1007.0 - 0.0 - - - - - - -
 
Date/Time
EST
Temp
°C
Wind Pressure Rain since
9am
mm
Weather Cloud Vis
km
Sea
Height
m
Swell
Dir  Spd
kts
Gust
kts
hPa Trend Height
m
Period
s
Dir
15/11:30pm 26.9 CALM 0 0 1007.5 - 0.0 - - - - - - -
15/11:00pm 26.9 CALM 0 0 1007.9 - 0.0 - - - - - - -
15/10:30pm 27.1 CALM 0 0 1007.7 - 0.0 - - - - - - -
15/10:00pm 27.3 CALM 0 0 1007.7 - 0.0 - - - - - - -
15/09:30pm 27.7 CALM 0 0 1007.2 - 0.0 - - - - - - -
15/09:00pm 27.6 CALM 0 0 1006.9 - 0.0 - - - - - - -
15/08:30pm 27.8 CALM 0 1 1006.6 - 0.0 - - - - - - -
15/08:00pm 28.2 CALM 0 0 1006.0 - 0.0 - - - - - - -
15/07:30pm 28.3 CALM 0 0 1005.8 - 0.0 - - - - - - -
15/07:00pm 28.7 E 2 4 1005.2 - 0.0 - - - - - - -
15/06:30pm 29.2 E 2 4 1004.9 - 0.0 - - - - - - -
15/06:00pm 29.5 CALM 0 0 1004.5 - 0.0 - - - - - - -
15/05:30pm 29.5 E 2 4 1003.6 - 0.0 - - - - - - -
15/05:00pm 29.7 ENE 4 6 1003.1 - 0.0 - - - - - - -
15/04:30pm 30.2 ENE 5 8 1002.9 - 0.0 - - - - - - -
15/04:00pm 30.6 ENE 6 9 1002.5 - 0.0 - - - - - - -
15/03:30pm 31.6 NE 7 10 1002.5 - 0.0 - - - - - - -
15/03:00pm 32.9 NE 8 11 1002.7 - 0.0 - - - - - - -
15/02:30pm 32.8 ENE 7 10 1003.1 - 0.0 - - - - - - -
15/02:00pm 33.5 ENE 5 7 1003.5 - 0.0 - - - - - - -
15/01:30pm 33.5 ENE 6 11 1003.8 - 0.0 - - - - - - -
15/01:00pm 33.1 E 5 7 1004.2 - 0.0 - - - - - - -
15/12:30pm 32.9 NE 5 8 1004.5 - 0.0 - - - - - - -
15/12:00pm 32.7 ENE 6 9 1004.6 - 0.0 - - - - - - -
15/11:30am 32.6 E 4 5 1004.9 - 0.0 - - - - - - -
15/11:00am 31.7 S 4 6 1005.2 - 0.0 - - - - - - -
15/10:30am 31.6 ENE 3 5 1005.3 - 0.0 - - - - - - -
15/10:00am 30.8 NNE 3 5 1005.3 - 0.0 - - - - - - -
15/09:30am 30.1 N 1 5 1005.3 - 0.0 - - - - - - -
15/09:00am 29.1 CALM 0 0 1005.4 - 0.0 - - - - - - -
15/08:30am 28.0 WNW 1 4 1005.3 - 0.0 - - - - - - -
15/08:00am 26.6 W 1 5 1005.3 - 0.0 - - - - - - -
15/07:30am 24.7 WSW 5 7 1005.3 - 0.0 - - - - - - -
15/07:00am 23.7 CALM 0 0 1005.1 - 0.0 - - - - - - -
15/06:30am 23.0 CALM 0 4 1004.9 - 0.0 - - - - - - -
15/06:00am 23.0 WNW 1 5 1004.3 - 0.0 - - - - - - -
15/05:30am 23.1 CALM 0 2 1004.2 - 0.0 - - - - - - -
15/05:00am 23.1 CALM 0 0 1003.8 - 0.0 - - - - - - -
15/04:30am 23.3 CALM 0 3 1003.7 - 0.0 - - - - - - -
15/04:00am 23.4 WSW 5 6 1003.7 - 0.0 - - - - - - -
15/03:30am 23.6 CALM 0 3 1003.7 - 0.0 - - - - - - -
15/03:00am 23.7 WNW 1 4 1003.5 - 0.0 - - - - - - -
15/02:30am 23.9 WSW 3 5 1004.1 - 0.0 - - - - - - -
15/02:00am 23.9 WSW 2 5 1004.0 - 0.0 - - - - - - -
15/01:30am 23.9 CALM 0 2 1004.3 - 0.0 - - - - - - -
15/01:00am 24.2 CALM 0 0 1004.4 - 0.0 - - - - - - -
15/12:30am 24.1 CALM 0 0 1004.5 - 0.0 - - - - - - -
15/12:00am 24.3 WNW 3 4 1005.0 - 0.0 - - - - - - -
 
Date/Time
EST
Temp
°C
Wind Pressure Rain since
9am
mm
Weather Cloud Vis
km
Sea
Height
m
Swell
Dir  Spd
kts
Gust
kts
hPa Trend Height
m
Period
s
Dir
14/11:30pm 24.6 SW 5 7 1005.3 - 0.0 - - - - - - -
14/11:00pm 25.0 CALM 0 0 1005.4 - 0.0 - - - - - - -
14/10:30pm 25.2 CALM 0 0 1005.5 - 0.0 - - - - - - -
14/10:00pm 25.4 CALM 0 0 1005.4 - 0.0 - - - - - - -
14/09:30pm 25.7 CALM 0 0 1005.2 - 0.0 - - - - - - -
14/09:00pm 25.9 CALM 0 3 1004.8 - 0.0 - - - - - - -
14/08:30pm 26.2 CALM 0 0 1004.8 - 0.0 - - - - - - -
14/08:00pm 26.3 CALM 0 0 1004.4 - 0.0 - - - - - - -
14/07:30pm 27.1 CALM 0 0 1004.3 - 0.0 - - - - - - -
14/07:00pm 27.7 CALM 0 0 1004.2 - 0.0 - - - - - - -
14/06:30pm 28.5 N 1 4 1004.0 - 0.0 - - - - - - -
14/06:00pm 29.1 N 1 4 1003.9 - 0.0 - - - - - - -
14/05:30pm 29.3 NE 5 7 1003.8 - 0.0 - - - - - - -
14/05:00pm 29.6 ENE 6 9 1003.7 - 0.0 - - - - - - -
14/04:30pm 29.9 ENE 6 9 1003.8 - 0.0 - - - - - - -
14/04:00pm 30.1 NE 7 11 1003.7 - 0.0 - - - - - - -
14/03:30pm 30.2 NE 7 10 1004.1 - 0.0 - - - - - - -
14/03:00pm 30.5 ENE 8 11 1004.5 - 0.0 - - - - - - -
14/02:30pm 31.0 ENE 7 11 1004.9 - 0.0 - - - - - - -
14/02:00pm 30.5 ENE 8 12 1005.3 - 0.0 - - - - - - -
14/01:30pm 31.5 ENE 7 11 1005.5 - 0.0 - - - - - - -
14/01:00pm 31.0 ENE 7 15 1006.0 - 0.0 - - - - - - -
14/12:30pm 31.0 NE 7 10 1006.4 - 0.0 - - - - - - -
14/12:00pm 30.9 E 6 9 1006.8 - 0.0 - - - - - - -
14/11:30am 30.2 NE 6 10 1007.0 - 0.0 - - - - - - -
14/11:00am 30.7 NE 4 9 1007.5 - 0.0 - - - - - - -
14/10:30am 30.3 NE 3 6 1007.7 - 0.0 - - - - - - -
14/10:00am 29.2 N 1 5 1007.9 - 0.0 - - - - - - -
14/09:30am 28.9 N 1 5 1008.1 - 0.0 - - - - - - -
14/09:00am 27.0 CALM 0 0 1008.1 - 0.0 - - - - - - -
14/08:30am 25.3 NW 1 4 1008.4 - 0.0 - - - - - - -
14/08:00am 24.0 W 2 5 1008.4 - 0.0 - - - - - - -
14/07:30am 22.9 WNW 3 5 1008.4 - 0.0 - - - - - - -
14/07:00am 21.0 W 3 5 1008.3 - 0.0 - - - - - - -
14/06:30am 20.6 CALM 0 4 1008.1 - 0.0 - - - - - - -
14/06:00am 20.3 CALM 0 0 1007.7 - 0.0 - - - - - - -
14/05:30am 20.3 CALM 0 0 1007.6 - 0.0 - - - - - - -

Other Formats:

Comma delimited format used in spreadsheet applications
http://www.bom.gov.au/fwo/IDQ60701/IDQ60701.95292.axf

JavaScript Object Notation format (JSON) in row-major order
http://www.bom.gov.au/fwo/IDQ60701/IDQ60701.95292.json